sensor_id;sensor_type;location;lat;lon;timestamp;temperature;humidity
3860;DHT22;1945;52.036;8.614;2023-06-26T00:01:03;20.10;99.90
3860;DHT22;1945;52.036;8.614;2023-06-26T00:03:30;20.10;99.90
3860;DHT22;1945;52.036;8.614;2023-06-26T00:05:57;20.00;99.90
3860;DHT22;1945;52.036;8.614;2023-06-26T00:08:26;20.00;99.90
3860;DHT22;1945;52.036;8.614;2023-06-26T00:10:53;20.00;99.90
3860;DHT22;1945;52.036;8.614;2023-06-26T00:13:19;20.00;99.90
3860;DHT22;1945;52.036;8.614;2023-06-26T00:15:46;19.90;99.90
3860;DHT22;1945;52.036;8.614;2023-06-26T00:18:14;19.90;99.90
3860;DHT22;1945;52.036;8.614;2023-06-26T00:20:41;19.90;99.90
3860;DHT22;1945;52.036;8.614;2023-06-26T00:23:08;19.90;99.90
3860;DHT22;1945;52.036;8.614;2023-06-26T00:25:34;19.90;99.90
3860;DHT22;1945;52.036;8.614;2023-06-26T00:28:01;19.80;99.90
3860;DHT22;1945;52.036;8.614;2023-06-26T00:30:28;19.80;99.90
3860;DHT22;1945;52.036;8.614;2023-06-26T00:32:55;19.70;99.90
3860;DHT22;1945;52.036;8.614;2023-06-26T00:35:23;19.50;99.90
3860;DHT22;1945;52.036;8.614;2023-06-26T00:37:50;19.70;99.90
3860;DHT22;1945;52.036;8.614;2023-06-26T00:40:16;19.60;99.90
3860;DHT22;1945;52.036;8.614;2023-06-26T00:42:43;19.60;99.90
3860;DHT22;1945;52.036;8.614;2023-06-26T00:45:10;19.60;99.90
3860;DHT22;1945;52.036;8.614;2023-06-26T00:47:37;19.60;99.90
3860;DHT22;1945;52.036;8.614;2023-06-26T00:50:04;19.50;99.90
3860;DHT22;1945;52.036;8.614;2023-06-26T00:52:32;19.50;99.90
3860;DHT22;1945;52.036;8.614;2023-06-26T00:54:59;19.50;99.90
3860;DHT22;1945;52.036;8.614;2023-06-26T00:57:26;19.40;99.90
3860;DHT22;1945;52.036;8.614;2023-06-26T00:59:53;19.40;99.90
3860;DHT22;1945;52.036;8.614;2023-06-26T01:02:20;19.40;99.90
3860;DHT22;1945;52.036;8.614;2023-06-26T01:04:48;19.30;99.90
3860;DHT22;1945;52.036;8.614;2023-06-26T01:07:16;19.30;99.90
3860;DHT22;1945;52.036;8.614;2023-06-26T01:09:45;19.30;99.90
3860;DHT22;1945;52.036;8.614;2023-06-26T01:12:12;19.20;99.90
3860;DHT22;1945;52.036;8.614;2023-06-26T01:14:39;19.20;99.90
3860;DHT22;1945;52.036;8.614;2023-06-26T01:17:07;19.10;99.90
3860;DHT22;1945;52.036;8.614;2023-06-26T01:19:37;19.10;99.90
3860;DHT22;1945;52.036;8.614;2023-06-26T01:22:15;19.00;99.90
3860;DHT22;1945;52.036;8.614;2023-06-26T01:24:47;19.10;99.90
3860;DHT22;1945;52.036;8.614;2023-06-26T01:27:21;19.00;99.90
3860;DHT22;1945;52.036;8.614;2023-06-26T01:29:50;19.00;99.90
3860;DHT22;1945;52.036;8.614;2023-06-26T01:32:17;19.00;99.90
3860;DHT22;1945;52.036;8.614;2023-06-26T01:34:45;18.90;99.90
3860;DHT22;1945;52.036;8.614;2023-06-26T01:37:12;18.90;99.90
3860;DHT22;1945;52.036;8.614;2023-06-26T01:39:38;18.90;99.90
3860;DHT22;1945;52.036;8.614;2023-06-26T01:42:06;18.90;99.90
3860;DHT22;1945;52.036;8.614;2023-06-26T01:44:37;18.80;99.90
3860;DHT22;1945;52.036;8.614;2023-06-26T01:47:08;18.80;99.90
3860;DHT22;1945;52.036;8.614;2023-06-26T01:49:47;18.90;99.90
3860;DHT22;1945;52.036;8.614;2023-06-26T01:52:19;18.80;99.90
3860;DHT22;1945;52.036;8.614;2023-06-26T01:54:53;18.70;99.90
3860;DHT22;1945;52.036;8.614;2023-06-26T01:57:21;18.70;99.90
3860;DHT22;1945;52.036;8.614;2023-06-26T01:59:51;18.70;99.90
3860;DHT22;1945;52.036;8.614;2023-06-26T02:02:18;18.70;99.90
3860;DHT22;1945;52.036;8.614;2023-06-26T02:04:45;18.60;99.90
3860;DHT22;1945;52.036;8.614;2023-06-26T02:07:14;18.60;99.90
3860;DHT22;1945;52.036;8.614;2023-06-26T02:09:40;18.70;99.90
3860;DHT22;1945;52.036;8.614;2023-06-26T02:12:07;18.60;99.90
3860;DHT22;1945;52.036;8.614;2023-06-26T02:14:34;18.50;99.90
3860;DHT22;1945;52.036;8.614;2023-06-26T02:17:02;18.50;99.90
3860;DHT22;1945;52.036;8.614;2023-06-26T02:19:29;18.50;99.90
3860;DHT22;1945;52.036;8.614;2023-06-26T02:21:55;18.50;99.90
3860;DHT22;1945;52.036;8.614;2023-06-26T02:24:22;18.50;99.90
3860;DHT22;1945;52.036;8.614;2023-06-26T02:26:49;18.50;99.90
3860;DHT22;1945;52.036;8.614;2023-06-26T02:29:16;18.40;99.90
3860;DHT22;1945;52.036;8.614;2023-06-26T02:31:42;18.40;99.90
3860;DHT22;1945;52.036;8.614;2023-06-26T02:34:11;18.40;99.90
3860;DHT22;1945;52.036;8.614;2023-06-26T02:36:38;18.40;99.90
3860;DHT22;1945;52.036;8.614;2023-06-26T02:39:05;18.40;99.90
3860;DHT22;1945;52.036;8.614;2023-06-26T02:41:31;18.30;99.90
3860;DHT22;1945;52.036;8.614;2023-06-26T02:43:58;18.30;99.90
3860;DHT22;1945;52.036;8.614;2023-06-26T02:46:25;18.40;99.90
3860;DHT22;1945;52.036;8.614;2023-06-26T02:48:51;18.30;99.90
3860;DHT22;1945;52.036;8.614;2023-06-26T02:51:19;18.30;99.90
3860;DHT22;1945;52.036;8.614;2023-06-26T02:53:46;18.30;99.90
3860;DHT22;1945;52.036;8.614;2023-06-26T02:56:13;18.40;99.90
3860;DHT22;1945;52.036;8.614;2023-06-26T02:58:39;18.40;99.90
3860;DHT22;1945;52.036;8.614;2023-06-26T03:01:06;18.30;99.90
3860;DHT22;1945;52.036;8.614;2023-06-26T03:03:38;18.40;99.90
3860;DHT22;1945;52.036;8.614;2023-06-26T03:06:07;18.30;99.90
3860;DHT22;1945;52.036;8.614;2023-06-26T03:08:36;18.20;99.90
3860;DHT22;1945;52.036;8.614;2023-06-26T03:11:03;18.30;99.90
3860;DHT22;1945;52.036;8.614;2023-06-26T03:13:30;18.30;99.90
3860;DHT22;1945;52.036;8.614;2023-06-26T03:15:56;18.30;99.90
3860;DHT22;1945;52.036;8.614;2023-06-26T03:18:23;18.20;99.90
3860;DHT22;1945;52.036;8.614;2023-06-26T03:20:50;18.30;99.90
3860;DHT22;1945;52.036;8.614;2023-06-26T03:23:16;18.30;99.90
3860;DHT22;1945;52.036;8.614;2023-06-26T03:25:44;18.30;99.90
3860;DHT22;1945;52.036;8.614;2023-06-26T03:28:11;18.50;99.90
3860;DHT22;1945;52.036;8.614;2023-06-26T03:30:39;18.50;99.90
3860;DHT22;1945;52.036;8.614;2023-06-26T03:33:05;18.50;99.90
3860;DHT22;1945;52.036;8.614;2023-06-26T03:35:32;18.80;99.90
3860;DHT22;1945;52.036;8.614;2023-06-26T03:37:59;19.10;99.90
3860;DHT22;1945;52.036;8.614;2023-06-26T03:40:26;19.30;99.90
3860;DHT22;1945;52.036;8.614;2023-06-26T03:42:54;19.70;99.90
3860;DHT22;1945;52.036;8.614;2023-06-26T03:45:21;19.70;44.00
3860;DHT22;1945;52.036;8.614;2023-06-26T03:47:48;19.80;26.40
3860;DHT22;1945;52.036;8.614;2023-06-26T03:50:15;20.00;1.00
3860;DHT22;1945;52.036;8.614;2023-06-26T03:52:42;20.10;1.00
3860;DHT22;1945;52.036;8.614;2023-06-26T03:55:09;20.20;1.00
3860;DHT22;1945;52.036;8.614;2023-06-26T03:57:35;20.30;1.00
3860;DHT22;1945;52.036;8.614;2023-06-26T04:00:04;20.50;1.00
3860;DHT22;1945;52.036;8.614;2023-06-26T04:02:33;20.60;1.00
3860;DHT22;1945;52.036;8.614;2023-06-26T04:05:00;20.80;1.00
3860;DHT22;1945;52.036;8.614;2023-06-26T04:07:29;20.90;1.00
3860;DHT22;1945;52.036;8.614;2023-06-26T04:09:56;21.10;1.00
3860;DHT22;1945;52.036;8.614;2023-06-26T04:12:23;21.30;1.00
3860;DHT22;1945;52.036;8.614;2023-06-26T04:14:49;21.50;1.00
3860;DHT22;1945;52.036;8.614;2023-06-26T04:17:17;21.70;1.00
3860;DHT22;1945;52.036;8.614;2023-06-26T04:19:45;22.00;1.00
3860;DHT22;1945;52.036;8.614;2023-06-26T04:22:11;22.10;1.00
3860;DHT22;1945;52.036;8.614;2023-06-26T04:24:38;22.30;1.00
3860;DHT22;1945;52.036;8.614;2023-06-26T04:27:05;22.40;1.00
3860;DHT22;1945;52.036;8.614;2023-06-26T04:29:37;22.10;1.00
3860;DHT22;1945;52.036;8.614;2023-06-26T04:32:40;21.60;1.00
3860;DHT22;1945;52.036;8.614;2023-06-26T04:35:07;21.10;1.00
3860;DHT22;1945;52.036;8.614;2023-06-26T04:37:35;20.90;1.00
3860;DHT22;1945;52.036;8.614;2023-06-26T04:40:02;21.40;1.00
3860;DHT22;1945;52.036;8.614;2023-06-26T04:42:30;22.20;1.00
3860;DHT22;1945;52.036;8.614;2023-06-26T04:44:57;22.30;1.00
3860;DHT22;1945;52.036;8.614;2023-06-26T04:47:24;22.40;1.00
3860;DHT22;1945;52.036;8.614;2023-06-26T04:49:52;22.70;1.00
3860;DHT22;1945;52.036;8.614;2023-06-26T04:52:19;23.20;1.00
3860;DHT22;1945;52.036;8.614;2023-06-26T04:54:45;23.60;1.00
3860;DHT22;1945;52.036;8.614;2023-06-26T04:57:12;24.10;1.00
3860;DHT22;1945;52.036;8.614;2023-06-26T04:59:40;24.20;1.00
3860;DHT22;1945;52.036;8.614;2023-06-26T05:02:06;24.30;1.00
3860;DHT22;1945;52.036;8.614;2023-06-26T05:04:33;24.70;1.00
3860;DHT22;1945;52.036;8.614;2023-06-26T05:07:01;24.70;99.90
3860;DHT22;1945;52.036;8.614;2023-06-26T05:09:28;25.00;99.90
3860;DHT22;1945;52.036;8.614;2023-06-26T05:11:55;25.30;99.90
3860;DHT22;1945;52.036;8.614;2023-06-26T05:14:21;25.50;99.90
3860;DHT22;1945;52.036;8.614;2023-06-26T05:16:48;25.80;99.90
3860;DHT22;1945;52.036;8.614;2023-06-26T05:19:15;25.60;99.90
3860;DHT22;1945;52.036;8.614;2023-06-26T05:21:42;26.00;99.90
3860;DHT22;1945;52.036;8.614;2023-06-26T05:24:11;26.30;99.90
3860;DHT22;1945;52.036;8.614;2023-06-26T05:26:39;26.60;99.90
3860;DHT22;1945;52.036;8.614;2023-06-26T05:29:07;27.00;99.90
3860;DHT22;1945;52.036;8.614;2023-06-26T05:31:37;27.10;99.90
3860;DHT22;1945;52.036;8.614;2023-06-26T05:34:07;27.20;99.90
3860;DHT22;1945;52.036;8.614;2023-06-26T05:36:36;26.60;1.00
3860;DHT22;1945;52.036;8.614;2023-06-26T05:39:03;26.90;1.00
3860;DHT22;1945;52.036;8.614;2023-06-26T05:41:32;26.80;1.00
3860;DHT22;1945;52.036;8.614;2023-06-26T05:43:59;27.20;1.00
3860;DHT22;1945;52.036;8.614;2023-06-26T05:46:25;27.30;1.00
3860;DHT22;1945;52.036;8.614;2023-06-26T05:48:52;27.80;1.00
3860;DHT22;1945;52.036;8.614;2023-06-26T05:51:30;27.60;1.00
3860;DHT22;1945;52.036;8.614;2023-06-26T05:53:57;27.70;1.00
3860;DHT22;1945;52.036;8.614;2023-06-26T05:56:24;27.90;1.00
3860;DHT22;1945;52.036;8.614;2023-06-26T05:58:53;28.40;1.00
3860;DHT22;1945;52.036;8.614;2023-06-26T06:01:20;28.10;1.00
3860;DHT22;1945;52.036;8.614;2023-06-26T06:03:46;27.90;1.00
3860;DHT22;1945;52.036;8.614;2023-06-26T06:06:13;28.00;1.00
3860;DHT22;1945;52.036;8.614;2023-06-26T06:08:41;28.20;1.00
3860;DHT22;1945;52.036;8.614;2023-06-26T06:11:08;28.30;1.00
3860;DHT22;1945;52.036;8.614;2023-06-26T06:13:34;28.80;1.00
3860;DHT22;1945;52.036;8.614;2023-06-26T06:16:03;28.20;1.00
3860;DHT22;1945;52.036;8.614;2023-06-26T06:18:29;29.10;1.00
3860;DHT22;1945;52.036;8.614;2023-06-26T06:20:56;28.90;1.00
3860;DHT22;1945;52.036;8.614;2023-06-26T06:23:23;28.70;1.00
3860;DHT22;1945;52.036;8.614;2023-06-26T06:25:49;28.40;1.00
3860;DHT22;1945;52.036;8.614;2023-06-26T06:28:16;28.60;1.00
3860;DHT22;1945;52.036;8.614;2023-06-26T06:30:43;28.80;1.00
3860;DHT22;1945;52.036;8.614;2023-06-26T06:33:11;29.20;1.00
3860;DHT22;1945;52.036;8.614;2023-06-26T06:35:37;29.80;1.00
3860;DHT22;1945;52.036;8.614;2023-06-26T06:38:04;29.10;1.00
3860;DHT22;1945;52.036;8.614;2023-06-26T06:40:31;29.60;1.00
3860;DHT22;1945;52.036;8.614;2023-06-26T06:42:57;30.00;1.00
3860;DHT22;1945;52.036;8.614;2023-06-26T06:45:28;29.60;1.00
3860;DHT22;1945;52.036;8.614;2023-06-26T06:47:55;29.40;1.00
3860;DHT22;1945;52.036;8.614;2023-06-26T06:50:23;29.90;1.00
3860;DHT22;1945;52.036;8.614;2023-06-26T06:52:50;30.50;1.00
3860;DHT22;1945;52.036;8.614;2023-06-26T06:55:17;31.00;1.00
3860;DHT22;1945;52.036;8.614;2023-06-26T06:57:43;31.00;1.00
3860;DHT22;1945;52.036;8.614;2023-06-26T07:00:12;30.80;1.00
3860;DHT22;1945;52.036;8.614;2023-06-26T07:02:42;30.70;1.00
3860;DHT22;1945;52.036;8.614;2023-06-26T07:05:09;30.30;1.00
3860;DHT22;1945;52.036;8.614;2023-06-26T07:07:38;30.60;1.00
3860;DHT22;1945;52.036;8.614;2023-06-26T07:10:07;29.60;1.00
3860;DHT22;1945;52.036;8.614;2023-06-26T07:12:35;30.40;1.00
3860;DHT22;1945;52.036;8.614;2023-06-26T07:15:03;30.20;1.00
3860;DHT22;1945;52.036;8.614;2023-06-26T07:17:30;30.20;1.00
3860;DHT22;1945;52.036;8.614;2023-06-26T07:19:57;29.90;1.00
3860;DHT22;1945;52.036;8.614;2023-06-26T07:22:24;29.90;1.00
3860;DHT22;1945;52.036;8.614;2023-06-26T07:24:52;30.10;1.00
3860;DHT22;1945;52.036;8.614;2023-06-26T07:27:20;30.10;1.00
3860;DHT22;1945;52.036;8.614;2023-06-26T07:29:47;29.60;1.00
3860;DHT22;1945;52.036;8.614;2023-06-26T07:32:13;29.80;1.00
3860;DHT22;1945;52.036;8.614;2023-06-26T07:34:40;29.50;1.00
3860;DHT22;1945;52.036;8.614;2023-06-26T07:37:07;29.40;1.00
3860;DHT22;1945;52.036;8.614;2023-06-26T07:39:34;29.50;1.00
3860;DHT22;1945;52.036;8.614;2023-06-26T07:42:02;29.90;1.00
3860;DHT22;1945;52.036;8.614;2023-06-26T07:44:29;30.30;1.00
3860;DHT22;1945;52.036;8.614;2023-06-26T07:46:55;29.90;1.00
3860;DHT22;1945;52.036;8.614;2023-06-26T07:49:22;29.90;1.00
3860;DHT22;1945;52.036;8.614;2023-06-26T07:51:50;30.20;1.00
3860;DHT22;1945;52.036;8.614;2023-06-26T07:54:17;29.70;1.00
3860;DHT22;1945;52.036;8.614;2023-06-26T07:56:54;29.60;1.00
3860;DHT22;1945;52.036;8.614;2023-06-26T07:59:24;28.90;1.00
3860;DHT22;1945;52.036;8.614;2023-06-26T08:01:52;27.90;1.00
3860;DHT22;1945;52.036;8.614;2023-06-26T08:04:21;28.10;1.00
3860;DHT22;1945;52.036;8.614;2023-06-26T08:06:49;27.90;1.00
3860;DHT22;1945;52.036;8.614;2023-06-26T08:09:16;27.90;1.00
3860;DHT22;1945;52.036;8.614;2023-06-26T08:11:43;27.80;1.00
3860;DHT22;1945;52.036;8.614;2023-06-26T08:14:10;27.80;1.00
3860;DHT22;1945;52.036;8.614;2023-06-26T08:16:39;27.90;1.00
3860;DHT22;1945;52.036;8.614;2023-06-26T08:19:06;27.50;1.00
3860;DHT22;1945;52.036;8.614;2023-06-26T08:21:34;27.50;1.00
3860;DHT22;1945;52.036;8.614;2023-06-26T08:24:01;28.30;1.00
3860;DHT22;1945;52.036;8.614;2023-06-26T08:26:28;27.80;1.00
3860;DHT22;1945;52.036;8.614;2023-06-26T08:28:55;27.80;1.00
3860;DHT22;1945;52.036;8.614;2023-06-26T08:31:22;27.80;1.00
3860;DHT22;1945;52.036;8.614;2023-06-26T08:33:50;27.30;1.00
3860;DHT22;1945;52.036;8.614;2023-06-26T08:36:17;27.60;1.00
3860;DHT22;1945;52.036;8.614;2023-06-26T08:38:43;27.50;1.00
3860;DHT22;1945;52.036;8.614;2023-06-26T08:41:10;27.60;1.00
3860;DHT22;1945;52.036;8.614;2023-06-26T08:43:37;26.60;1.00
3860;DHT22;1945;52.036;8.614;2023-06-26T08:46:04;26.40;1.00
3860;DHT22;1945;52.036;8.614;2023-06-26T08:48:32;26.00;27.90
3860;DHT22;1945;52.036;8.614;2023-06-26T08:51:08;26.40;35.00
3860;DHT22;1945;52.036;8.614;2023-06-26T08:53:40;26.30;1.00
3860;DHT22;1945;52.036;8.614;2023-06-26T08:56:10;26.00;17.00
3860;DHT22;1945;52.036;8.614;2023-06-26T08:58:38;26.20;1.30
3860;DHT22;1945;52.036;8.614;2023-06-26T09:01:06;27.00;1.00
3860;DHT22;1945;52.036;8.614;2023-06-26T09:03:32;26.70;1.00
3860;DHT22;1945;52.036;8.614;2023-06-26T09:05:59;26.80;1.00
3860;DHT22;1945;52.036;8.614;2023-06-26T09:08:27;26.90;1.00
3860;DHT22;1945;52.036;8.614;2023-06-26T09:10:54;26.70;1.00
3860;DHT22;1945;52.036;8.614;2023-06-26T09:13:21;26.50;1.00
3860;DHT22;1945;52.036;8.614;2023-06-26T09:15:48;26.30;1.00
3860;DHT22;1945;52.036;8.614;2023-06-26T09:18:18;26.30;1.00
3860;DHT22;1945;52.036;8.614;2023-06-26T09:20:46;26.10;1.00
3860;DHT22;1945;52.036;8.614;2023-06-26T09:23:14;27.40;1.00
3860;DHT22;1945;52.036;8.614;2023-06-26T09:25:42;27.80;1.00
3860;DHT22;1945;52.036;8.614;2023-06-26T09:28:10;27.80;1.00
3860;DHT22;1945;52.036;8.614;2023-06-26T09:30:37;26.80;1.00
3860;DHT22;1945;52.036;8.614;2023-06-26T09:33:14;26.40;1.00
3860;DHT22;1945;52.036;8.614;2023-06-26T09:35:42;26.60;1.00
3860;DHT22;1945;52.036;8.614;2023-06-26T09:38:08;26.60;1.00
3860;DHT22;1945;52.036;8.614;2023-06-26T09:40:35;27.00;1.00
3860;DHT22;1945;52.036;8.614;2023-06-26T09:43:05;27.70;1.00
3860;DHT22;1945;52.036;8.614;2023-06-26T09:45:32;27.60;1.00
3860;DHT22;1945;52.036;8.614;2023-06-26T09:48:00;27.40;1.00
3860;DHT22;1945;52.036;8.614;2023-06-26T09:50:28;27.30;1.00
3860;DHT22;1945;52.036;8.614;2023-06-26T09:52:55;27.20;1.00
3860;DHT22;1945;52.036;8.614;2023-06-26T09:55:24;27.20;1.00
3860;DHT22;1945;52.036;8.614;2023-06-26T09:57:51;26.50;1.00
3860;DHT22;1945;52.036;8.614;2023-06-26T10:00:20;26.30;1.00
3860;DHT22;1945;52.036;8.614;2023-06-26T10:02:47;26.10;1.00
3860;DHT22;1945;52.036;8.614;2023-06-26T10:05:14;26.10;1.00
3860;DHT22;1945;52.036;8.614;2023-06-26T10:07:41;26.30;1.00
3860;DHT22;1945;52.036;8.614;2023-06-26T10:10:08;26.60;1.00
3860;DHT22;1945;52.036;8.614;2023-06-26T10:12:36;27.00;1.00
3860;DHT22;1945;52.036;8.614;2023-06-26T10:15:03;27.00;1.00
3860;DHT22;1945;52.036;8.614;2023-06-26T10:17:34;26.70;1.00
3860;DHT22;1945;52.036;8.614;2023-06-26T10:20:03;26.90;1.00
3860;DHT22;1945;52.036;8.614;2023-06-26T10:22:36;26.60;1.00
3860;DHT22;1945;52.036;8.614;2023-06-26T10:25:06;26.30;1.00
3860;DHT22;1945;52.036;8.614;2023-06-26T10:27:36;26.20;1.00
3860;DHT22;1945;52.036;8.614;2023-06-26T10:30:09;26.50;1.00
3860;DHT22;1945;52.036;8.614;2023-06-26T10:32:37;26.80;1.00
3860;DHT22;1945;52.036;8.614;2023-06-26T10:35:06;26.80;1.00
3860;DHT22;1945;52.036;8.614;2023-06-26T10:37:47;26.60;1.00
3860;DHT22;1945;52.036;8.614;2023-06-26T10:40:15;26.50;1.00
3860;DHT22;1945;52.036;8.614;2023-06-26T10:42:47;26.30;1.00
3860;DHT22;1945;52.036;8.614;2023-06-26T10:45:15;25.80;1.00
3860;DHT22;1945;52.036;8.614;2023-06-26T10:47:46;25.70;1.00
3860;DHT22;1945;52.036;8.614;2023-06-26T10:50:20;25.90;1.00
3860;DHT22;1945;52.036;8.614;2023-06-26T10:53:07;26.20;1.00
3860;DHT22;1945;52.036;8.614;2023-06-26T10:55:34;26.90;1.00
3860;DHT22;1945;52.036;8.614;2023-06-26T10:58:01;26.70;1.00
3860;DHT22;1945;52.036;8.614;2023-06-26T11:00:28;26.70;1.00
3860;DHT22;1945;52.036;8.614;2023-06-26T11:02:56;27.20;1.00
3860;DHT22;1945;52.036;8.614;2023-06-26T11:05:24;27.00;1.00
3860;DHT22;1945;52.036;8.614;2023-06-26T11:08:04;26.60;1.00
3860;DHT22;1945;52.036;8.614;2023-06-26T11:10:50;26.10;1.00
3860;DHT22;1945;52.036;8.614;2023-06-26T11:13:17;26.30;1.00
3860;DHT22;1945;52.036;8.614;2023-06-26T11:15:49;26.00;1.00
3860;DHT22;1945;52.036;8.614;2023-06-26T11:18:18;25.60;1.00
3860;DHT22;1945;52.036;8.614;2023-06-26T11:20:45;25.70;1.00
3860;DHT22;1945;52.036;8.614;2023-06-26T11:23:12;26.60;1.00
3860;DHT22;1945;52.036;8.614;2023-06-26T11:25:39;26.80;1.00
3860;DHT22;1945;52.036;8.614;2023-06-26T11:28:09;27.10;1.00
3860;DHT22;1945;52.036;8.614;2023-06-26T11:30:36;26.80;1.00
3860;DHT22;1945;52.036;8.614;2023-06-26T11:33:05;27.50;1.00
3860;DHT22;1945;52.036;8.614;2023-06-26T11:35:33;27.10;1.00
3860;DHT22;1945;52.036;8.614;2023-06-26T11:38:02;26.70;1.00
3860;DHT22;1945;52.036;8.614;2023-06-26T11:40:31;26.80;1.00
3860;DHT22;1945;52.036;8.614;2023-06-26T11:42:59;27.20;1.00
3860;DHT22;1945;52.036;8.614;2023-06-26T11:45:31;27.40;1.00
3860;DHT22;1945;52.036;8.614;2023-06-26T11:47:58;27.60;1.00
3860;DHT22;1945;52.036;8.614;2023-06-26T11:50:25;27.20;1.00
3860;DHT22;1945;52.036;8.614;2023-06-26T11:52:58;27.50;1.00
3860;DHT22;1945;52.036;8.614;2023-06-26T11:55:25;27.70;1.00
3860;DHT22;1945;52.036;8.614;2023-06-26T11:57:54;27.80;1.00
3860;DHT22;1945;52.036;8.614;2023-06-26T12:00:22;27.30;99.90
3860;DHT22;1945;52.036;8.614;2023-06-26T12:02:49;27.30;99.90
3860;DHT22;1945;52.036;8.614;2023-06-26T12:05:17;27.60;99.90
3860;DHT22;1945;52.036;8.614;2023-06-26T12:07:48;27.70;99.90
3860;DHT22;1945;52.036;8.614;2023-06-26T12:10:19;27.60;99.90
3860;DHT22;1945;52.036;8.614;2023-06-26T12:12:46;27.60;99.90
3860;DHT22;1945;52.036;8.614;2023-06-26T12:15:15;27.70;99.90
3860;DHT22;1945;52.036;8.614;2023-06-26T12:17:45;27.50;99.90
3860;DHT22;1945;52.036;8.614;2023-06-26T12:20:18;27.60;99.90
3860;DHT22;1945;52.036;8.614;2023-06-26T12:22:46;27.60;99.90
3860;DHT22;1945;52.036;8.614;2023-06-26T12:25:13;27.60;99.90
3860;DHT22;1945;52.036;8.614;2023-06-26T12:27:44;27.70;99.90
3860;DHT22;1945;52.036;8.614;2023-06-26T12:30:11;27.50;99.90
3860;DHT22;1945;52.036;8.614;2023-06-26T12:32:38;27.50;99.90
3860;DHT22;1945;52.036;8.614;2023-06-26T12:35:05;27.10;99.90
3860;DHT22;1945;52.036;8.614;2023-06-26T12:37:36;27.20;99.90
3860;DHT22;1945;52.036;8.614;2023-06-26T12:40:16;27.10;99.90
3860;DHT22;1945;52.036;8.614;2023-06-26T12:42:45;27.20;99.90
3860;DHT22;1945;52.036;8.614;2023-06-26T12:45:13;27.30;99.90
3860;DHT22;1945;52.036;8.614;2023-06-26T12:47:40;27.60;99.90
3860;DHT22;1945;52.036;8.614;2023-06-26T12:50:08;27.50;99.90
3860;DHT22;1945;52.036;8.614;2023-06-26T12:52:34;27.60;99.90
3860;DHT22;1945;52.036;8.614;2023-06-26T12:55:01;27.80;99.90
3860;DHT22;1945;52.036;8.614;2023-06-26T12:57:28;27.80;99.90
3860;DHT22;1945;52.036;8.614;2023-06-26T12:59:56;27.00;99.90
3860;DHT22;1945;52.036;8.614;2023-06-26T13:02:23;27.10;99.90
3860;DHT22;1945;52.036;8.614;2023-06-26T13:04:49;27.50;99.90
3860;DHT22;1945;52.036;8.614;2023-06-26T13:07:16;27.40;99.90
3860;DHT22;1945;52.036;8.614;2023-06-26T13:09:43;27.10;99.90
3860;DHT22;1945;52.036;8.614;2023-06-26T13:12:11;26.70;99.90
3860;DHT22;1945;52.036;8.614;2023-06-26T13:14:38;26.60;99.90
3860;DHT22;1945;52.036;8.614;2023-06-26T13:17:06;26.30;99.90
3860;DHT22;1945;52.036;8.614;2023-06-26T13:19:33;26.30;99.90
3860;DHT22;1945;52.036;8.614;2023-06-26T13:21:59;26.00;99.90
3860;DHT22;1945;52.036;8.614;2023-06-26T13:24:26;26.20;99.90
3860;DHT22;1945;52.036;8.614;2023-06-26T13:26:53;26.30;99.90
3860;DHT22;1945;52.036;8.614;2023-06-26T13:29:20;26.80;99.90
3860;DHT22;1945;52.036;8.614;2023-06-26T13:31:46;26.60;99.90
3860;DHT22;1945;52.036;8.614;2023-06-26T13:34:21;26.80;99.90
3860;DHT22;1945;52.036;8.614;2023-06-26T13:36:49;26.70;99.90
3860;DHT22;1945;52.036;8.614;2023-06-26T13:39:16;26.50;99.90
3860;DHT22;1945;52.036;8.614;2023-06-26T13:41:43;26.60;99.90
3860;DHT22;1945;52.036;8.614;2023-06-26T13:44:09;26.30;99.90
3860;DHT22;1945;52.036;8.614;2023-06-26T13:46:36;26.30;99.90
3860;DHT22;1945;52.036;8.614;2023-06-26T13:49:03;25.80;99.90
3860;DHT22;1945;52.036;8.614;2023-06-26T13:51:31;25.80;99.90
3860;DHT22;1945;52.036;8.614;2023-06-26T13:54:12;26.40;99.90
3860;DHT22;1945;52.036;8.614;2023-06-26T13:56:39;26.80;99.90
3860;DHT22;1945;52.036;8.614;2023-06-26T13:59:05;27.10;99.90
3860;DHT22;1945;52.036;8.614;2023-06-26T14:01:33;26.80;99.90
3860;DHT22;1945;52.036;8.614;2023-06-26T14:04:02;26.50;99.90
3860;DHT22;1945;52.036;8.614;2023-06-26T14:06:30;25.90;99.90
3860;DHT22;1945;52.036;8.614;2023-06-26T14:08:57;25.70;99.90
3860;DHT22;1945;52.036;8.614;2023-06-26T14:11:25;25.70;99.90
3860;DHT22;1945;52.036;8.614;2023-06-26T14:13:52;25.70;99.90
3860;DHT22;1945;52.036;8.614;2023-06-26T14:16:18;26.00;99.90
3860;DHT22;1945;52.036;8.614;2023-06-26T14:18:46;26.40;99.90
3860;DHT22;1945;52.036;8.614;2023-06-26T14:21:13;25.90;99.90
3860;DHT22;1945;52.036;8.614;2023-06-26T14:23:41;26.20;99.90
3860;DHT22;1945;52.036;8.614;2023-06-26T14:26:08;26.30;99.90
3860;DHT22;1945;52.036;8.614;2023-06-26T14:28:34;26.00;99.90
3860;DHT22;1945;52.036;8.614;2023-06-26T14:31:01;25.80;99.90
3860;DHT22;1945;52.036;8.614;2023-06-26T14:33:28;25.20;99.90
3860;DHT22;1945;52.036;8.614;2023-06-26T14:35:56;24.90;99.90
3860;DHT22;1945;52.036;8.614;2023-06-26T14:38:23;25.00;99.90
3860;DHT22;1945;52.036;8.614;2023-06-26T14:40:51;25.30;99.90
3860;DHT22;1945;52.036;8.614;2023-06-26T14:43:21;25.60;99.90
3860;DHT22;1945;52.036;8.614;2023-06-26T14:45:48;25.50;99.90
3860;DHT22;1945;52.036;8.614;2023-06-26T14:48:15;25.30;99.90
3860;DHT22;1945;52.036;8.614;2023-06-26T14:50:42;25.20;99.90
3860;DHT22;1945;52.036;8.614;2023-06-26T14:53:08;25.20;99.90
3860;DHT22;1945;52.036;8.614;2023-06-26T14:55:35;25.30;99.90
3860;DHT22;1945;52.036;8.614;2023-06-26T14:58:03;25.60;99.90
3860;DHT22;1945;52.036;8.614;2023-06-26T15:00:30;25.10;99.90
3860;DHT22;1945;52.036;8.614;2023-06-26T15:02:56;24.80;99.90
3860;DHT22;1945;52.036;8.614;2023-06-26T15:05:24;24.80;99.90
3860;DHT22;1945;52.036;8.614;2023-06-26T15:07:50;24.90;91.90
3860;DHT22;1945;52.036;8.614;2023-06-26T15:10:17;25.00;60.90
3860;DHT22;1945;52.036;8.614;2023-06-26T15:12:44;25.30;85.60
3860;DHT22;1945;52.036;8.614;2023-06-26T15:15:12;25.20;57.00
3860;DHT22;1945;52.036;8.614;2023-06-26T15:17:39;25.40;87.40
3860;DHT22;1945;52.036;8.614;2023-06-26T15:20:07;25.20;58.90
3860;DHT22;1945;52.036;8.614;2023-06-26T15:22:33;25.40;41.60
3860;DHT22;1945;52.036;8.614;2023-06-26T15:25:00;25.40;51.30
3860;DHT22;1945;52.036;8.614;2023-06-26T15:27:27;25.40;11.10
3860;DHT22;1945;52.036;8.614;2023-06-26T15:29:54;25.20;1.00
3860;DHT22;1945;52.036;8.614;2023-06-26T15:32:22;25.30;1.00
3860;DHT22;1945;52.036;8.614;2023-06-26T15:34:49;25.00;1.00
3860;DHT22;1945;52.036;8.614;2023-06-26T15:37:16;25.00;1.00
3860;DHT22;1945;52.036;8.614;2023-06-26T15:39:42;24.90;1.00
3860;DHT22;1945;52.036;8.614;2023-06-26T15:42:09;25.00;1.00
3860;DHT22;1945;52.036;8.614;2023-06-26T15:44:36;24.80;1.00
3860;DHT22;1945;52.036;8.614;2023-06-26T15:47:03;24.80;1.00
3860;DHT22;1945;52.036;8.614;2023-06-26T15:49:32;24.70;1.00
3860;DHT22;1945;52.036;8.614;2023-06-26T15:51:59;24.80;1.00
3860;DHT22;1945;52.036;8.614;2023-06-26T15:54:25;24.80;1.00
3860;DHT22;1945;52.036;8.614;2023-06-26T15:56:52;24.80;1.00
3860;DHT22;1945;52.036;8.614;2023-06-26T15:59:21;24.70;1.00
3860;DHT22;1945;52.036;8.614;2023-06-26T16:01:51;24.50;1.00
3860;DHT22;1945;52.036;8.614;2023-06-26T16:04:19;24.60;1.00
3860;DHT22;1945;52.036;8.614;2023-06-26T16:06:48;24.50;1.00
3860;DHT22;1945;52.036;8.614;2023-06-26T16:09:15;24.60;1.00
3860;DHT22;1945;52.036;8.614;2023-06-26T16:11:42;24.80;1.00
3860;DHT22;1945;52.036;8.614;2023-06-26T16:14:09;24.60;1.00